createdAt,value
2017-04-30T00:01:21.668Z,1.20
2017-04-30T00:03:49.969Z,1.20
2017-04-30T00:06:18.252Z,1.20
2017-04-30T00:08:46.561Z,1.30
2017-04-30T00:11:15.585Z,1.30
2017-04-30T00:13:43.877Z,1.20
2017-04-30T00:16:12.184Z,1.20
2017-04-30T00:18:40.472Z,1.10
2017-04-30T00:21:08.776Z,1.10
2017-04-30T00:23:37.807Z,1.00
2017-04-30T00:26:06.095Z,0.90
2017-04-30T00:28:34.431Z,0.90
2017-04-30T00:31:03.582Z,0.90
2017-04-30T00:33:31.899Z,0.90
2017-04-30T00:36:00.928Z,0.80
2017-04-30T00:38:29.223Z,0.70
2017-04-30T00:40:57.524Z,0.60
2017-04-30T00:43:25.809Z,0.60
2017-04-30T00:45:54.127Z,0.50
2017-04-30T00:48:22.484Z,0.50
2017-04-30T00:50:51.512Z,0.40
2017-04-30T00:53:19.831Z,0.40
2017-04-30T00:55:48.122Z,0.50
2017-04-30T00:58:16.451Z,0.50
2017-04-30T01:00:44.736Z,0.50
2017-04-30T01:03:13.016Z,0.50
2017-04-30T01:05:41.339Z,0.60
2017-04-30T01:08:09.632Z,0.60
2017-04-30T01:10:38.710Z,0.60
2017-04-30T01:13:06.998Z,0.60
2017-04-30T01:15:35.296Z,0.50
2017-04-30T01:18:03.604Z,0.40
2017-04-30T01:20:31.883Z,0.30
2017-04-30T01:23:00.200Z,0.30
2017-04-30T01:25:28.487Z,0.20
2017-04-30T01:27:57.513Z,0.10
2017-04-30T01:30:25.821Z,0.20
2017-04-30T01:32:54.100Z,0.20
2017-04-30T01:35:22.420Z,0.20
2017-04-30T01:37:51.445Z,0.20
2017-04-30T01:40:19.731Z,0.20
2017-04-30T01:42:48.041Z,0.40
2017-04-30T01:45:18.466Z,0.40
2017-04-30T01:47:46.795Z,0.30
2017-04-30T01:50:15.087Z,0.30
2017-04-30T01:52:43.379Z,0.30
2017-04-30T01:55:11.683Z,0.40
2017-04-30T01:57:39.980Z,0.40
2017-04-30T02:00:08.295Z,0.40
2017-04-30T02:02:36.581Z,0.40
2017-04-30T02:05:04.860Z,0.40
2017-04-30T02:07:33.176Z,0.40
2017-04-30T02:10:01.446Z,0.30
2017-04-30T02:12:29.720Z,0.30
2017-04-30T02:14:58.032Z,0.40
2017-04-30T02:17:26.334Z,0.40
2017-04-30T02:19:54.627Z,0.60
2017-04-30T02:22:22.939Z,0.80
2017-04-30T02:24:51.216Z,0.70
2017-04-30T02:27:19.496Z,0.70
2017-04-30T02:29:47.827Z,0.60
2017-04-30T02:32:16.135Z,0.80
2017-04-30T02:34:44.412Z,0.70
2017-04-30T02:37:12.730Z,0.80
2017-04-30T02:39:41.008Z,0.70
2017-04-30T02:42:09.289Z,0.70
2017-04-30T02:44:37.608Z,0.70
2017-04-30T02:47:05.909Z,0.60
2017-04-30T02:49:34.201Z,0.50
2017-04-30T02:52:02.538Z,0.50
2017-04-30T02:54:30.820Z,0.40
2017-04-30T02:56:59.101Z,0.40
2017-04-30T02:59:27.436Z,0.30
2017-04-30T03:01:55.713Z,0.40
2017-04-30T03:04:24.002Z,0.30
2017-04-30T03:06:53.051Z,0.30
2017-04-30T03:09:21.333Z,0.30
2017-04-30T03:11:49.620Z,0.20
2017-04-30T03:14:17.945Z,0.20
2017-04-30T03:16:46.967Z,0.10
2017-04-30T03:19:15.255Z,0.10
2017-04-30T03:21:43.576Z,0.00
2017-04-30T03:24:12.621Z,-0.20
2017-04-30T03:26:40.944Z,-0.20
2017-04-30T03:29:09.256Z,-0.30
2017-04-30T03:31:37.561Z,-0.30
2017-04-30T03:34:05.840Z,-0.40
2017-04-30T03:36:34.208Z,-0.40
2017-04-30T03:39:14.573Z,-0.30
2017-04-30T03:41:54.695Z,-0.30
2017-04-30T03:44:35.548Z,-0.20
2017-04-30T03:47:15.650Z,-0.10
2017-04-30T03:49:56.854Z,-0.10
2017-04-30T03:52:37.116Z,-0.10
2017-04-30T03:55:17.220Z,-0.10
2017-04-30T03:57:58.337Z,-0.10
2017-04-30T04:00:38.425Z,-0.10
2017-04-30T04:03:18.693Z,-0.10
2017-04-30T04:05:58.810Z,-0.10
2017-04-30T04:08:38.956Z,-0.10
2017-04-30T04:11:19.105Z,0.00
2017-04-30T04:13:59.157Z,0.10
2017-04-30T04:16:39.456Z,0.30
2017-04-30T04:19:19.614Z,0.30
2017-04-30T04:21:59.768Z,0.40
2017-04-30T04:24:39.948Z,0.50
2017-04-30T04:27:20.029Z,0.60
2017-04-30T04:30:00.248Z,0.70
2017-04-30T04:32:40.361Z,0.80
2017-04-30T04:35:20.564Z,1.00
2017-04-30T04:38:00.719Z,1.10
2017-04-30T04:40:40.963Z,1.20
2017-04-30T04:43:21.056Z,1.30
2017-04-30T04:46:01.255Z,1.40
2017-04-30T04:48:41.412Z,1.50
2017-04-30T04:51:21.795Z,1.70
2017-04-30T04:54:01.767Z,1.70
2017-04-30T04:56:41.912Z,1.80
2017-04-30T04:59:22.084Z,1.90
2017-04-30T06:08:07.081Z,25.80
2017-04-30T06:10:47.126Z,26.40
2017-04-30T06:13:27.405Z,26.60
2017-04-30T06:16:07.413Z,26.50
2017-04-30T06:18:48.306Z,26.90
2017-04-30T06:21:28.369Z,27.00
2017-04-30T06:24:08.605Z,27.40
2017-04-30T06:26:48.634Z,27.10
2017-04-30T06:29:28.832Z,26.10
2017-04-30T06:32:08.885Z,24.60
2017-04-30T06:34:49.158Z,22.70
2017-04-30T06:37:29.178Z,20.80
2017-04-30T06:40:10.102Z,18.50
2017-04-30T06:42:50.067Z,16.90
2017-04-30T06:45:30.297Z,15.80
2017-04-30T06:48:10.404Z,15.00
2017-04-30T06:50:51.341Z,13.60
2017-04-30T06:53:31.314Z,13.20
2017-04-30T06:56:11.540Z,12.50
2017-04-30T06:58:51.526Z,12.30
2017-04-30T07:01:31.788Z,12.10
2017-04-30T07:04:11.888Z,12.20
2017-04-30T07:09:42.256Z,13.20
2017-04-30T07:12:22.390Z,13.20
2017-04-30T07:15:02.506Z,12.80
2017-04-30T07:17:42.726Z,13.30
2017-04-30T07:20:22.728Z,13.10
2017-04-30T07:23:03.537Z,13.40
2017-04-30T07:25:43.605Z,13.40
2017-04-30T07:28:23.862Z,13.40
2017-04-30T07:31:04.374Z,13.30
2017-04-30T07:33:45.410Z,13.00
2017-04-30T07:36:25.569Z,12.90
2017-04-30T07:39:05.706Z,12.90
2017-04-30T07:41:45.823Z,13.30
2017-04-30T07:44:14.885Z,14.00
2017-04-30T07:46:43.184Z,14.50
2017-04-30T07:49:12.211Z,14.70
2017-04-30T07:51:40.544Z,14.60
2017-04-30T07:54:08.840Z,14.20
2017-04-30T07:56:37.880Z,13.90
2017-04-30T07:59:06.198Z,13.90
2017-04-30T08:01:34.492Z,14.20
2017-04-30T08:04:03.522Z,14.70
2017-04-30T08:06:31.843Z,15.30
2017-04-30T08:09:00.151Z,15.40
2017-04-30T08:11:29.178Z,15.80
2017-04-30T08:13:57.508Z,16.20
2017-04-30T08:16:25.788Z,15.30
2017-04-30T08:18:57.280Z,14.40
2017-04-30T08:21:25.611Z,14.10
2017-04-30T08:23:53.908Z,14.70
2017-04-30T08:26:22.986Z,15.10
2017-04-30T08:28:51.273Z,15.90
2017-04-30T08:31:20.317Z,15.80
2017-04-30T08:33:48.703Z,15.60
2017-04-30T08:36:16.990Z,15.60
2017-04-30T08:38:45.274Z,15.10
2017-04-30T08:41:13.597Z,14.80
2017-04-30T08:43:42.629Z,14.70
2017-04-30T08:46:10.919Z,15.10
2017-04-30T08:48:39.245Z,15.30
2017-04-30T08:51:08.278Z,16.00
2017-04-30T08:53:36.572Z,16.60
2017-04-30T08:56:04.897Z,15.90
2017-04-30T08:58:33.925Z,15.70
2017-04-30T09:01:02.214Z,15.70
2017-04-30T09:03:30.551Z,15.50
2017-04-30T09:05:58.839Z,15.30
2017-04-30T09:08:27.865Z,15.40
2017-04-30T09:10:56.186Z,15.90
2017-04-30T09:13:24.474Z,15.80
2017-04-30T09:15:52.773Z,16.10
2017-04-30T09:18:21.837Z,16.90
2017-04-30T09:20:50.120Z,17.60
2017-04-30T09:23:18.399Z,18.20
2017-04-30T09:25:46.729Z,18.30
2017-04-30T09:28:15.021Z,17.90
2017-04-30T09:30:43.314Z,17.90
2017-04-30T09:33:11.646Z,18.00
2017-04-30T09:35:39.937Z,17.70
2017-04-30T09:38:08.217Z,17.90
2017-04-30T09:40:36.545Z,17.90
2017-04-30T09:43:04.834Z,17.90
2017-04-30T09:45:33.118Z,18.10
2017-04-30T09:48:02.201Z,18.50
2017-04-30T09:50:30.487Z,18.30
2017-04-30T09:52:59.531Z,18.40
2017-04-30T09:55:27.854Z,18.20
2017-04-30T09:57:56.138Z,18.10
2017-04-30T10:00:25.163Z,18.30
2017-04-30T10:02:53.493Z,18.40
2017-04-30T10:05:21.785Z,18.40
2017-04-30T10:07:50.082Z,18.40
2017-04-30T10:10:19.151Z,18.10
2017-04-30T10:12:47.443Z,18.50
2017-04-30T10:15:16.484Z,18.90
2017-04-30T10:17:44.818Z,18.60
2017-04-30T10:20:13.854Z,18.60
2017-04-30T10:22:42.154Z,18.80
2017-04-30T10:25:10.492Z,19.00
2017-04-30T10:27:38.017Z,18.90
2017-04-30T10:30:06.335Z,19.70
2017-04-30T10:32:34.681Z,19.70
2017-04-30T10:35:02.968Z,19.70
2017-04-30T10:37:32.002Z,19.00
2017-04-30T10:40:00.338Z,18.70
2017-04-30T10:42:29.370Z,18.80
2017-04-30T10:44:57.665Z,18.30
2017-04-30T10:47:26.010Z,18.70
2017-04-30T10:49:54.295Z,19.20
2017-04-30T10:52:22.586Z,19.20
2017-04-30T10:54:50.915Z,19.10
2017-04-30T10:57:19.203Z,19.50
2017-04-30T10:59:48.233Z,19.60
2017-04-30T11:02:16.573Z,19.80
2017-04-30T11:04:44.861Z,19.70
2017-04-30T11:07:13.890Z,19.50
2017-04-30T11:09:42.225Z,18.90
2017-04-30T11:12:10.510Z,19.20
2017-04-30T11:14:39.572Z,18.80
2017-04-30T11:17:07.907Z,18.40
2017-04-30T11:19:36.194Z,18.90
2017-04-30T11:22:04.489Z,19.10
2017-04-30T11:24:32.817Z,19.50
2017-04-30T11:27:01.857Z,19.80
2017-04-30T11:29:30.144Z,19.00
2017-04-30T11:31:58.484Z,18.90
2017-04-30T11:34:27.514Z,18.80
2017-04-30T11:36:55.816Z,19.10
2017-04-30T11:39:24.215Z,18.80
2017-04-30T11:41:52.655Z,19.10
2017-04-30T11:44:20.962Z,19.20
2017-04-30T11:46:49.315Z,19.10
2017-04-30T11:49:17.620Z,19.40
2017-04-30T11:51:45.924Z,19.80
2017-04-30T11:54:14.403Z,19.60
2017-04-30T11:56:42.819Z,19.90
2017-04-30T11:59:11.121Z,19.80
2017-04-30T12:01:39.458Z,19.00
2017-04-30T12:04:07.757Z,19.20
2017-04-30T12:06:36.042Z,19.20
2017-04-30T12:09:04.485Z,18.60
2017-04-30T12:11:32.892Z,18.60
2017-04-30T12:14:01.189Z,19.10
2017-04-30T12:16:29.676Z,19.50
2017-04-30T12:18:57.981Z,20.00
2017-04-30T12:21:26.331Z,19.80
2017-04-30T12:23:54.622Z,19.50
2017-04-30T12:26:22.914Z,19.50
2017-04-30T12:28:51.245Z,20.00
2017-04-30T12:31:19.538Z,19.80
2017-04-30T12:33:47.843Z,19.40
2017-04-30T12:36:16.178Z,19.70
2017-04-30T12:38:44.485Z,20.20
2017-04-30T12:41:12.781Z,20.00
2017-04-30T12:43:41.125Z,19.40
2017-04-30T12:46:09.409Z,19.00
2017-04-30T12:48:37.705Z,19.50
2017-04-30T12:51:06.041Z,19.50
2017-04-30T12:53:34.342Z,19.10
2017-04-30T12:56:02.852Z,18.40
2017-04-30T12:58:31.170Z,18.90
2017-04-30T13:01:00.208Z,19.30
2017-04-30T13:03:28.521Z,19.80
2017-04-30T13:05:56.849Z,19.90
2017-04-30T13:08:25.146Z,19.60
2017-04-30T13:10:53.453Z,19.20
2017-04-30T13:13:21.793Z,19.30
2017-04-30T13:15:50.088Z,19.20
2017-04-30T13:18:18.395Z,19.50
2017-04-30T13:20:46.709Z,20.00
2017-04-30T13:23:15.005Z,20.30
2017-04-30T13:25:43.298Z,19.80
2017-04-30T13:28:11.621Z,19.70
2017-04-30T13:30:40.689Z,19.40
2017-04-30T13:33:09.017Z,19.30
2017-04-30T13:35:37.329Z,19.50
2017-04-30T13:38:05.670Z,19.40
2017-04-30T13:40:33.977Z,19.20
2017-04-30T13:43:02.277Z,19.30
2017-04-30T13:45:30.617Z,19.50
2017-04-30T13:47:58.905Z,19.60
2017-04-30T13:50:27.212Z,19.90
2017-04-30T13:52:55.546Z,19.60
2017-04-30T13:55:23.845Z,19.40
2017-04-30T13:57:52.138Z,19.40
2017-04-30T14:00:20.473Z,19.70
2017-04-30T14:02:49.522Z,19.60
2017-04-30T14:05:17.827Z,19.60
2017-04-30T14:07:46.161Z,19.40
2017-04-30T14:10:14.461Z,19.00
2017-04-30T14:12:42.759Z,19.40
2017-04-30T14:15:11.086Z,19.50
2017-04-30T14:17:39.389Z,19.40
2017-04-30T14:20:07.691Z,19.70
2017-04-30T14:22:36.025Z,19.40
2017-04-30T14:25:04.322Z,19.30
2017-04-30T14:27:32.617Z,19.50
2017-04-30T14:30:00.957Z,19.60
2017-04-30T14:32:29.254Z,19.50
2017-04-30T14:34:57.564Z,19.50
2017-04-30T14:37:25.901Z,19.80
2017-04-30T14:39:54.202Z,19.60
2017-04-30T14:42:22.501Z,19.60
2017-04-30T14:44:50.830Z,19.70
2017-04-30T14:47:19.121Z,19.30
2017-04-30T14:49:47.421Z,19.00
2017-04-30T14:52:15.757Z,19.20
2017-04-30T14:54:44.054Z,19.30
2017-04-30T14:57:12.345Z,19.40
2017-04-30T14:59:40.685Z,19.40
2017-04-30T15:02:08.972Z,19.50
2017-04-30T15:04:37.270Z,19.30
2017-04-30T15:07:05.608Z,19.50
2017-04-30T15:09:34.625Z,19.20
2017-04-30T15:12:02.922Z,19.10
2017-04-30T15:14:31.257Z,19.10
2017-04-30T15:17:00.293Z,19.20
2017-04-30T15:19:28.586Z,19.10
2017-04-30T15:21:56.901Z,19.20
2017-04-30T15:24:25.929Z,19.00
2017-04-30T15:26:54.210Z,18.90
2017-04-30T15:29:22.542Z,18.80
2017-04-30T15:31:50.841Z,18.60
2017-04-30T15:34:19.124Z,18.40
2017-04-30T15:36:47.451Z,18.00
2017-04-30T15:39:15.737Z,18.00
2017-04-30T15:41:44.013Z,18.00
2017-04-30T15:44:12.339Z,17.90
2017-04-30T15:46:40.644Z,17.90
2017-04-30T15:49:08.927Z,17.90
2017-04-30T15:51:37.250Z,18.20
2017-04-30T15:54:05.533Z,18.50
2017-04-30T15:56:34.578Z,18.60
2017-04-30T15:59:02.906Z,18.50
2017-04-30T16:01:31.194Z,18.60
2017-04-30T16:04:00.239Z,18.40
2017-04-30T16:06:28.566Z,18.40
2017-04-30T16:08:57.592Z,18.20
2017-04-30T16:11:25.890Z,17.90
2017-04-30T16:13:54.233Z,17.90
2017-04-30T16:16:22.522Z,17.90
2017-04-30T16:18:50.811Z,17.80
2017-04-30T16:21:19.133Z,17.70
2017-04-30T16:23:47.426Z,17.60
2017-04-30T16:26:15.729Z,17.50
2017-04-30T16:28:44.064Z,17.30
2017-04-30T16:31:12.346Z,17.10
2017-04-30T16:33:40.637Z,17.10
2017-04-30T16:36:08.962Z,17.10
2017-04-30T16:38:37.247Z,17.20
2017-04-30T16:41:05.527Z,17.10
2017-04-30T16:43:33.854Z,17.00
2017-04-30T16:46:02.138Z,16.90
2017-04-30T16:48:31.169Z,16.80
2017-04-30T16:50:59.486Z,16.70
2017-04-30T16:53:27.770Z,16.60
2017-04-30T16:55:56.065Z,16.40
2017-04-30T16:58:25.143Z,16.20
2017-04-30T17:00:53.433Z,16.10
2017-04-30T17:03:21.726Z,16.00
2017-04-30T17:05:50.056Z,15.90
2017-04-30T17:08:18.341Z,15.80
2017-04-30T17:10:46.638Z,15.70
2017-04-30T17:13:14.953Z,15.70
2017-04-30T17:15:43.241Z,15.60
2017-04-30T17:18:11.533Z,15.50
2017-04-30T17:20:39.850Z,15.50
2017-04-30T17:23:08.129Z,15.40
2017-04-30T17:25:36.414Z,15.40
2017-04-30T17:28:04.751Z,15.30
2017-04-30T17:30:33.034Z,15.30
2017-04-30T17:33:01.312Z,15.20
2017-04-30T17:35:29.712Z,15.10
2017-04-30T17:37:58.009Z,15.00
2017-04-30T17:40:26.302Z,14.90
2017-04-30T17:42:55.382Z,14.70
2017-04-30T17:45:24.419Z,14.70
2017-04-30T17:47:52.693Z,14.60
2017-04-30T17:50:21.015Z,14.50
2017-04-30T17:52:49.318Z,14.40
2017-04-30T17:55:18.357Z,14.20
2017-04-30T17:57:46.686Z,14.10
2017-04-30T18:00:15.925Z,14.00
2017-04-30T18:02:44.218Z,13.90
2017-04-30T18:05:12.541Z,13.70
2017-04-30T18:07:40.847Z,13.60
2017-04-30T18:10:10.057Z,13.50
2017-04-30T18:12:38.383Z,13.40
2017-04-30T18:15:06.733Z,13.30
2017-04-30T18:17:35.030Z,13.20
2017-04-30T18:20:03.365Z,13.10
2017-04-30T18:22:31.651Z,13.00
2017-04-30T18:24:59.934Z,12.90
2017-04-30T18:27:28.284Z,12.80
2017-04-30T18:29:57.485Z,12.60
2017-04-30T18:32:26.511Z,12.50
2017-04-30T18:34:54.826Z,12.60
2017-04-30T18:37:23.112Z,12.50
2017-04-30T18:39:51.396Z,12.30
2017-04-30T18:42:19.709Z,12.20
2017-04-30T18:44:47.989Z,12.10
2017-04-30T18:47:16.280Z,11.90
2017-04-30T18:49:44.610Z,11.80
2017-04-30T18:52:12.921Z,11.90
2017-04-30T18:54:41.201Z,11.80
2017-04-30T18:57:09.541Z,11.70
2017-04-30T18:59:37.829Z,11.50
2017-04-30T19:02:06.107Z,11.40
2017-04-30T19:04:34.437Z,11.40
2017-04-30T19:07:02.752Z,11.30
2017-04-30T19:09:31.027Z,11.10
2017-04-30T19:11:59.356Z,10.80
2017-04-30T19:14:27.637Z,10.70
2017-04-30T19:16:55.927Z,10.80
2017-04-30T19:19:24.242Z,10.70
2017-04-30T19:21:52.530Z,10.80
2017-04-30T19:24:20.814Z,10.80
2017-04-30T19:26:49.880Z,10.70
2017-04-30T19:29:18.173Z,10.60
2017-04-30T19:31:46.472Z,10.50
2017-04-30T19:34:18.994Z,10.40
2017-04-30T19:36:47.276Z,10.50
2017-04-30T19:39:15.565Z,10.50
2017-04-30T19:41:43.888Z,10.50
2017-04-30T19:44:12.218Z,10.40
2017-04-30T19:46:40.512Z,10.20
2017-04-30T19:49:08.843Z,10.30
2017-04-30T19:51:37.146Z,10.20
2017-04-30T19:54:05.431Z,10.20
2017-04-30T19:56:33.749Z,10.20
2017-04-30T19:59:02.096Z,10.20
2017-04-30T20:01:30.378Z,10.10
2017-04-30T20:03:58.701Z,10.10
2017-04-30T20:06:27.722Z,10.00
2017-04-30T20:08:55.994Z,9.70
2017-04-30T20:11:24.309Z,9.60
2017-04-30T20:13:52.580Z,9.50
2017-04-30T20:16:20.854Z,9.40
2017-04-30T20:18:49.178Z,9.30
2017-04-30T20:21:18.197Z,9.10
2017-04-30T20:23:46.481Z,9.00
2017-04-30T20:26:14.798Z,8.90
2017-04-30T20:28:43.084Z,8.70
2017-04-30T20:31:11.368Z,8.50
2017-04-30T20:33:39.693Z,8.50
2017-04-30T20:36:07.973Z,8.40
2017-04-30T20:38:36.250Z,8.30
2017-04-30T20:41:04.561Z,8.30
2017-04-30T20:43:32.886Z,8.20
2017-04-30T20:46:01.903Z,8.00
2017-04-30T20:48:30.214Z,7.90
2017-04-30T20:50:58.502Z,7.80
2017-04-30T20:53:26.793Z,7.60
2017-04-30T20:55:55.126Z,7.40
2017-04-30T20:58:23.416Z,7.30
2017-04-30T21:00:51.717Z,7.20
2017-04-30T21:03:20.051Z,7.10
2017-04-30T21:05:48.359Z,7.00
2017-04-30T21:08:16.640Z,6.90
2017-04-30T21:10:44.971Z,6.70
2017-04-30T21:13:13.288Z,6.60
2017-04-30T21:15:41.569Z,6.50
2017-04-30T21:18:09.882Z,6.40
2017-04-30T21:20:38.910Z,6.30
2017-04-30T21:23:07.194Z,6.30
2017-04-30T21:25:35.522Z,6.20
2017-04-30T21:28:03.803Z,6.20
2017-04-30T21:30:32.108Z,6.10
2017-04-30T21:33:01.166Z,6.00
2017-04-30T21:35:29.452Z,6.10
2017-04-30T21:37:57.734Z,6.10
2017-04-30T21:40:26.065Z,6.00
2017-04-30T21:42:54.341Z,5.90
2017-04-30T21:45:22.616Z,5.80
2017-04-30T21:47:50.938Z,5.70
2017-04-30T21:50:19.222Z,5.60
2017-04-30T21:52:47.583Z,5.60
2017-04-30T21:55:15.898Z,5.50
2017-04-30T21:57:44.186Z,5.50
2017-04-30T22:00:13.209Z,5.50
2017-04-30T22:02:41.525Z,5.50
2017-04-30T22:05:09.810Z,5.50
2017-04-30T22:07:38.086Z,5.50
2017-04-30T22:10:06.409Z,5.50
2017-04-30T22:12:34.690Z,5.50
2017-04-30T22:15:02.965Z,5.50
2017-04-30T22:17:31.286Z,5.50
2017-04-30T22:19:59.573Z,5.60
2017-04-30T22:22:27.865Z,5.50
2017-04-30T22:24:56.193Z,5.40
2017-04-30T22:27:24.467Z,5.40
2017-04-30T22:29:52.738Z,5.30
2017-04-30T22:32:21.057Z,5.30
2017-04-30T22:34:49.338Z,5.30
2017-04-30T22:37:17.617Z,5.20
2017-04-30T22:39:45.935Z,5.20
2017-04-30T22:42:14.948Z,5.20
2017-04-30T22:44:43.224Z,5.10
2017-04-30T22:47:11.534Z,5.10
2017-04-30T22:49:39.813Z,5.20
2017-04-30T22:52:08.100Z,5.20
2017-04-30T22:54:36.408Z,5.10
2017-04-30T22:57:05.425Z,5.10
2017-04-30T22:59:33.703Z,5.10
2017-04-30T23:02:02.018Z,5.10
2017-04-30T23:04:30.305Z,5.00
2017-04-30T23:06:58.582Z,4.90
2017-04-30T23:09:26.898Z,5.00
2017-04-30T23:11:55.920Z,4.90
2017-04-30T23:14:24.194Z,4.80
2017-04-30T23:16:52.506Z,4.70
2017-04-30T23:19:20.785Z,4.60
2017-04-30T23:21:49.054Z,4.50
2017-04-30T23:24:17.377Z,4.50
2017-04-30T23:26:46.394Z,4.50
2017-04-30T23:29:14.678Z,4.40
2017-04-30T23:31:42.993Z,4.40
2017-04-30T23:34:11.273Z,4.40
2017-04-30T23:36:39.553Z,4.40
2017-04-30T23:39:07.867Z,4.30
2017-04-30T23:41:36.893Z,4.30
2017-04-30T23:44:05.178Z,4.30
2017-04-30T23:46:33.497Z,4.20
2017-04-30T23:49:01.777Z,4.20
2017-04-30T23:51:30.058Z,4.20
2017-04-30T23:53:58.371Z,4.30
2017-04-30T23:56:26.645Z,4.30
2017-04-30T23:58:54.938Z,4.30
